Time;durP1;ratioP1;P1;durP2;ratioP2;P2;SDS_P1;SDS_P2;PMS_P1;PMS_P2;Temp;Humidity;BMP_temperature;BMP_pressure;BME280_temperature;BME280_humidity;BME280_pressure;Samples;Min_cycle;Max_cycle;Signal;HPM_P1;HPM_P2
2023/06/26 00:01:07;;;;;;;21.17;18.10;;;;;;;20.99;71.30;94452.28;4211590;28;20155;-56
2023/06/26 00:03:13;;;;;;;21.42;18.88;;;;;;;20.97;71.54;94451.69;4205427;28;20055;-57
2023/06/26 00:05:14;;;;;;;20.77;18.63;;;;;;;20.88;71.95;94449.56;4209483;28;20055;-56
2023/06/26 00:07:16;;;;;;;22.13;18.10;;;;;;;20.93;71.73;94447.03;4197143;28;20095;-56
2023/06/26 00:09:18;;;;;;;19.55;17.55;;;;;;;20.92;71.92;94450.75;4211634;28;20055;-56
2023/06/26 00:11:21;;;;;;;19.20;16.98;;;;;;;20.88;71.93;94447.72;4210403;28;20047;-56
2023/06/26 00:13:23;;;;;;;19.65;16.77;;;;;;;20.84;72.05;94441.22;4208088;28;20520;-56
2023/06/26 00:15:25;;;;;;;19.77;17.40;;;;;;;20.86;72.14;94447.97;4208898;28;20051;-52
2023/06/26 00:17:27;;;;;;;21.48;17.40;;;;;;;20.93;71.97;94447.03;4205533;28;20044;-57
2023/06/26 00:19:28;;;;;;;22.50;17.27;;;;;;;20.92;72.16;94450.75;4206871;28;20127;-55
2023/06/26 00:21:30;;;;;;;20.52;17.02;;;;;;;20.89;71.79;94446.69;4211633;28;20613;-53
2023/06/26 00:23:36;;;;;;;18.17;16.02;;;;;;;20.84;72.24;94444.72;4207791;28;20075;-55
2023/06/26 00:25:40;;;;;;;21.30;16.02;;;;;;;20.89;72.26;94445.84;4211532;28;20044;-60
2023/06/26 00:27:42;;;;;;;16.90;15.10;;;;;;;20.79;72.15;94452.56;4200467;28;20052;-56
2023/06/26 00:29:44;;;;;;;18.17;16.13;;;;;;;20.70;72.45;94447.81;4202112;28;20044;-58
2023/06/26 00:31:46;;;;;;;18.50;15.02;;;;;;;20.66;72.74;94442.94;4211647;28;20200;-58
2023/06/26 00:33:47;;;;;;;17.65;15.63;;;;;;;20.61;72.90;94444.66;4209822;28;20072;-56
2023/06/26 00:35:49;;;;;;;17.30;15.55;;;;;;;20.60;72.92;94438.50;4209961;28;20056;-58
2023/06/26 00:37:50;;;;;;;16.95;15.27;;;;;;;20.61;72.87;94442.81;4211336;28;20051;-59
2023/06/26 00:39:52;;;;;;;17.13;14.63;;;;;;;20.73;72.73;94448.16;4205838;28;20044;-58
2023/06/26 00:41:54;;;;;;;16.20;14.50;;;;;;;20.71;72.46;94444.91;4209278;28;20052;-57
2023/06/26 00:43:56;;;;;;;17.63;15.05;;;;;;;20.76;72.38;94444.25;4209104;28;20055;-58
2023/06/26 00:45:57;;;;;;;17.83;14.40;;;;;;;20.68;72.47;94444.56;4203730;28;20040;-60
2023/06/26 00:47:59;;;;;;;16.65;14.75;;;;;;;20.59;72.91;94446.75;4210686;28;20487;-59
2023/06/26 00:50:01;;;;;;;15.55;13.95;;;;;;;20.64;72.77;94434.34;4206825;28;20048;-59
2023/06/26 00:52:03;;;;;;;17.33;14.60;;;;;;;20.68;72.69;94440.03;4202699;28;20059;-58
2023/06/26 00:54:05;;;;;;;16.88;14.00;;;;;;;20.67;72.49;94438.41;4211068;28;20044;-55
2023/06/26 00:56:06;;;;;;;15.55;13.98;;;;;;;20.71;72.39;94433.44;4200371;28;20048;-60
2023/06/26 00:58:08;;;;;;;15.75;13.48;;;;;;;20.73;72.01;94432.19;4210784;28;20056;-58
2023/06/26 01:00:10;;;;;;;15.20;13.55;;;;;;;20.76;72.14;94426.41;4200908;28;20125;-57
2023/06/26 01:02:12;;;;;;;14.80;12.70;;;;;;;20.78;72.22;94431.47;4205616;28;20105;-58
2023/06/26 01:04:17;;;;;;;15.25;13.40;;;;;;;20.76;72.37;94421.09;4204198;28;20044;-59
2023/06/26 01:06:21;;;;;;;14.68;12.82;;;;;;;20.81;71.97;94423.88;4207267;28;20050;-57
2023/06/26 01:08:23;;;;;;;16.83;13.13;;;;;;;20.74;72.07;94427.69;4209527;28;20055;-59
2023/06/26 01:10:27;;;;;;;14.90;13.10;;;;;;;20.59;72.77;94418.28;4203755;28;20041;-58
2023/06/26 01:12:31;;;;;;;14.55;12.77;;;;;;;20.56;73.05;94417.88;4209188;28;20047;-58
2023/06/26 01:14:35;;;;;;;16.05;13.38;;;;;;;20.54;73.24;94412.81;4207959;28;20044;-59
2023/06/26 01:16:38;;;;;;;17.60;13.07;;;;;;;20.53;72.81;94407.69;4198388;28;20159;-57
2023/06/26 01:18:45;;;;;;;16.65;13.32;;;;;;;20.57;72.89;94407.03;4209956;28;20047;-60
2023/06/26 01:20:47;;;;;;;14.40;12.90;;;;;;;20.53;72.81;94402.38;4209745;28;20059;-58
2023/06/26 01:23:08;;;;;;;15.95;12.75;;;;;;;20.53;72.97;94399.72;4208737;28;20117;-57
2023/06/26 01:25:38;;;;;;;18.85;13.65;;;;;;;20.56;72.41;94402.72;4208017;28;20433;-57
2023/06/26 01:27:42;;;;;;;14.13;12.73;;;;;;;20.55;72.63;94403.75;4204865;28;20061;-57
2023/06/26 01:29:44;;;;;;;16.65;13.90;;;;;;;20.53;72.81;94403.19;4201360;28;20044;-59
2023/06/26 01:31:49;;;;;;;14.27;12.88;;;;;;;20.46;72.82;94405.13;4210840;28;20063;-58
2023/06/26 01:33:51;;;;;;;14.38;12.88;;;;;;;20.42;73.09;94393.31;4205808;28;20044;-58
2023/06/26 01:35:53;;;;;;;15.43;13.10;;;;;;;20.46;72.73;94397.16;4208568;28;20187;-58
2023/06/26 01:38:17;;;;;;;14.68;13.15;;;;;;;20.49;72.58;94393.22;4203305;28;20123;-57
2023/06/26 01:40:19;;;;;;;18.05;14.05;;;;;;;20.44;72.57;94393.91;4210206;28;20127;-56
2023/06/26 01:42:20;;;;;;;17.35;13.55;;;;;;;20.40;72.47;94393.53;4210165;28;20104;-58
2023/06/26 01:44:28;;;;;;;16.95;13.32;;;;;;;20.47;72.47;94390.78;4211096;28;20040;-57
2023/06/26 01:46:59;;;;;;;16.23;13.73;;;;;;;20.45;72.41;94398.97;4203740;28;20083;-57
2023/06/26 01:49:38;;;;;;;14.77;13.18;;;;;;;20.47;72.22;94390.78;4202392;28;20056;-60
2023/06/26 01:51:46;;;;;;;18.38;12.63;;;;;;;20.50;72.26;94389.50;4205057;28;20245;-58
2023/06/26 01:53:53;;;;;;;17.45;13.68;;;;;;;20.48;72.04;94392.41;4208240;28;20048;-57
2023/06/26 01:56:01;;;;;;;16.20;13.82;;;;;;;20.55;71.95;94382.47;4209639;28;20047;-57
2023/06/26 01:58:03;;;;;;;16.02;14.00;;;;;;;20.50;71.81;94390.34;4209445;28;20048;-59
2023/06/26 02:00:07;;;;;;;15.13;13.55;;;;;;;20.48;71.86;94391.59;4201738;28;20053;-59
2023/06/26 02:02:09;;;;;;;14.98;13.18;;;;;;;20.46;71.91;94383.84;4206837;28;20134;-61
2023/06/26 02:04:11;;;;;;;15.15;13.60;;;;;;;20.41;71.81;94391.69;4212970;28;20086;-59
2023/06/26 02:06:13;;;;;;;22.45;17.70;;;;;;;20.33;72.04;94382.19;4212275;28;20044;-57
2023/06/26 02:08:17;;;;;;;20.60;17.15;;;;;;;20.31;71.92;94384.28;4211646;28;20044;-57
2023/06/26 02:10:19;;;;;;;24.15;18.00;;;;;;;20.26;71.86;94381.47;4214010;28;20526;-58
2023/06/26 02:12:21;;;;;;;20.02;15.68;;;;;;;20.28;72.07;94379.41;4213466;28;20052;-58
2023/06/26 02:14:22;;;;;;;18.63;14.90;;;;;;;20.22;72.20;94382.97;4212442;28;20059;-57
2023/06/26 02:16:24;;;;;;;18.40;15.18;;;;;;;20.17;72.22;94385.50;4200983;28;20453;-57
2023/06/26 02:18:26;;;;;;;19.15;15.90;;;;;;;20.19;72.16;94378.91;4214168;28;20048;-57
2023/06/26 02:20:27;;;;;;;18.40;15.48;;;;;;;20.17;72.33;94380.19;4212574;28;20048;-54
2023/06/26 02:22:29;;;;;;;17.30;15.50;;;;;;;20.17;72.22;94385.50;4212624;28;20075;-58
2023/06/26 02:24:32;;;;;;;22.33;19.77;;;;;;;20.12;72.27;94378.19;4212238;28;20044;-56
2023/06/26 02:26:34;;;;;;;19.05;15.60;;;;;;;20.04;72.47;94389.94;4200058;28;20049;-57
2023/06/26 02:28:35;;;;;;;17.60;15.70;;;;;;;20.07;72.55;94387.88;4211974;28;20528;-58
2023/06/26 02:30:37;;;;;;;18.95;16.95;;;;;;;20.03;72.74;94385.69;4213187;28;20143;-54
2023/06/26 02:32:39;;;;;;;18.17;16.13;;;;;;;19.97;73.07;94389.22;4212574;28;20044;-57
2023/06/26 02:34:41;;;;;;;18.10;16.27;;;;;;;20.00;73.01;94388.81;4213783;28;20055;-57
2023/06/26 02:36:43;;;;;;;18.40;16.33;;;;;;;20.03;72.98;94392.84;4206729;28;20053;-57
2023/06/26 02:38:44;;;;;;;17.63;15.85;;;;;;;19.96;73.10;94390.28;4210573;28;20131;-57
2023/06/26 02:40:46;;;;;;;18.55;16.63;;;;;;;20.07;73.12;94391.38;4205727;28;20054;-58
2023/06/26 02:42:48;;;;;;;21.08;16.85;;;;;;;20.13;72.56;94379.00;4208311;28;20054;-57
2023/06/26 02:44:49;;;;;;;18.30;16.33;;;;;;;20.16;72.32;94394.53;4213687;28;20481;-57
2023/06/26 02:46:52;;;;;;;20.00;16.48;;;;;;;20.18;72.41;94387.13;4199717;28;20052;-57
2023/06/26 02:48:53;;;;;;;18.55;16.55;;;;;;;20.18;71.97;94393.25;4213466;28;20044;-58
2023/06/26 02:50:55;;;;;;;20.50;17.20;;;;;;;20.23;71.99;94395.22;4212791;28;20044;-58
2023/06/26 02:52:57;;;;;;;22.42;16.83;;;;;;;20.25;71.93;94393.16;4211788;28;20393;-58
2023/06/26 02:54:58;;;;;;;20.05;17.98;;;;;;;20.22;71.67;94390.97;4203969;28;20105;-57
2023/06/26 02:57:00;;;;;;;19.55;17.40;;;;;;;20.10;72.16;94387.44;4208062;28;20044;-58
2023/06/26 02:59:02;;;;;;;18.60;16.65;;;;;;;20.11;72.29;94392.53;4208998;28;20048;-59
2023/06/26 03:01:04;;;;;;;19.52;17.48;;;;;;;20.17;72.08;94383.63;4212730;28;20052;-57
2023/06/26 03:03:05;;;;;;;20.58;18.48;;;;;;;20.22;71.87;94382.97;4211203;28;20607;-61
2023/06/26 03:05:08;;;;;;;18.95;17.13;;;;;;;20.24;71.39;94386.19;4200735;28;20098;-57
2023/06/26 03:07:10;;;;;;;19.38;17.48;;;;;;;20.18;71.51;94389.78;4208983;28;20048;-57
2023/06/26 03:09:11;;;;;;;20.63;18.20;;;;;;;20.18;71.54;94390.59;4200168;28;20062;-56
2023/06/26 03:11:13;;;;;;;19.73;17.63;;;;;;;20.19;71.58;94394.06;4202235;28;20080;-57
2023/06/26 03:13:15;;;;;;;20.70;18.55;;;;;;;20.17;71.89;94394.28;4208948;28;20079;-59
2023/06/26 03:15:16;;;;;;;20.52;18.48;;;;;;;20.10;71.76;94398.88;4204026;28;20383;-57
2023/06/26 03:17:18;;;;;;;20.85;18.65;;;;;;;20.05;71.67;94391.59;4207465;28;20048;-57
2023/06/26 03:19:20;;;;;;;20.15;18.08;;;;;;;20.10;71.84;94395.41;4207413;28;20533;-60
2023/06/26 03:21:21;;;;;;;20.00;18.00;;;;;;;20.11;71.52;94391.72;4212605;28;20543;-57
2023/06/26 03:23:24;;;;;;;20.67;18.48;;;;;;;20.09;71.81;94391.97;4211249;28;20447;-58
2023/06/26 03:25:26;;;;;;;27.95;20.50;;;;;;;20.06;71.81;94392.38;4210949;28;20032;-58
2023/06/26 03:27:27;;;;;;;21.23;19.08;;;;;;;20.01;72.11;94395.72;4210597;28;20087;-60
2023/06/26 03:29:29;;;;;;;20.27;18.27;;;;;;;20.01;72.09;94397.59;4200239;28;20101;-59
2023/06/26 03:31:31;;;;;;;21.15;18.95;;;;;;;20.03;72.09;94393.66;4207836;28;20053;-57
2023/06/26 03:33:33;;;;;;;24.33;19.95;;;;;;;20.08;72.01;94402.81;4199833;28;20053;-59
2023/06/26 03:35:34;;;;;;;22.52;19.30;;;;;;;20.09;71.84;94401.75;4210319;28;20048;-57
2023/06/26 03:37:36;;;;;;;22.55;18.98;;;;;;;20.04;71.97;94403.25;4211465;28;20626;-57
2023/06/26 03:39:38;;;;;;;22.33;20.08;;;;;;;19.97;72.13;94407.84;4210943;28;20040;-58
2023/06/26 03:41:39;;;;;;;21.30;19.02;;;;;;;19.98;72.33;94400.66;4209338;28;20046;-57
2023/06/26 03:43:41;;;;;;;22.58;19.48;;;;;;;20.02;72.31;94404.50;4212229;28;20064;-57
2023/06/26 03:45:43;;;;;;;20.48;18.27;;;;;;;20.04;72.25;94403.25;4212226;28;20052;-57
2023/06/26 03:47:48;;;;;;;21.10;18.92;;;;;;;19.99;72.31;94391.69;4212339;28;20422;-58
2023/06/26 03:49:50;;;;;;;20.65;18.75;;;;;;;19.87;72.55;94402.25;4213150;28;20494;-58
2023/06/26 03:51:51;;;;;;;21.70;19.25;;;;;;;19.94;72.41;94403.00;4196093;28;20054;-59
2023/06/26 03:53:53;;;;;;;20.15;18.15;;;;;;;19.90;72.66;94403.66;4199403;28;20074;-60
2023/06/26 03:55:55;;;;;;;21.35;19.10;;;;;;;19.91;72.60;94399.97;4199989;28;20048;-58
2023/06/26 03:57:56;;;;;;;20.30;18.33;;;;;;;19.91;72.28;94402.63;4203899;28;20533;-58
2023/06/26 03:59:58;;;;;;;21.05;18.83;;;;;;;19.95;72.22;94407.25;4202119;28;20048;-56
2023/06/26 04:02:00;;;;;;;23.13;18.00;;;;;;;20.00;72.23;94396.78;4206440;28;20051;-59
2023/06/26 04:04:01;;;;;;;21.67;19.40;;;;;;;20.06;71.75;94405.69;4203913;28;20060;-58
2023/06/26 04:06:03;;;;;;;20.20;18.13;;;;;;;20.14;71.75;94388.63;4208842;28;20049;-61
2023/06/26 04:08:05;;;;;;;22.23;17.90;;;;;;;20.11;71.42;94394.38;4200260;28;20052;-59
2023/06/26 04:10:07;;;;;;;22.40;20.00;;;;;;;20.15;71.41;94398.19;4200187;28;20048;-60
2023/06/26 04:12:09;;;;;;;19.83;17.75;;;;;;;20.22;71.23;94393.63;4200834;28;20098;-59
2023/06/26 04:14:11;;;;;;;19.70;17.80;;;;;;;20.21;71.11;94395.44;4207290;28;20052;-61
2023/06/26 04:16:13;;;;;;;19.67;17.60;;;;;;;20.32;71.21;94395.72;4210510;28;20048;-58
2023/06/26 04:18:15;;;;;;;21.73;18.05;;;;;;;20.39;70.80;94399.09;4212210;28;20672;-59
2023/06/26 04:20:16;;;;;;;19.83;17.42;;;;;;;20.42;70.57;94399.44;4212336;28;20391;-60
2023/06/26 04:22:19;;;;;;;19.98;17.40;;;;;;;20.41;70.34;94403.16;4210942;28;20063;-60
2023/06/26 04:24:21;;;;;;;20.40;17.05;;;;;;;20.52;70.40;94398.91;4210016;28;20048;-58
2023/06/26 04:26:22;;;;;;;18.70;16.80;;;;;;;20.56;69.93;94409.91;4211463;28;20109;-60
2023/06/26 04:28:24;;;;;;;21.65;17.38;;;;;;;20.59;69.81;94415.59;4206862;28;20055;-56
2023/06/26 04:30:26;;;;;;;20.70;16.27;;;;;;;20.66;69.49;94407.53;4208128;28;20106;-57
2023/06/26 04:32:27;;;;;;;18.30;16.42;;;;;;;20.74;69.48;94406.38;4212142;28;20051;-58
2023/06/26 04:34:35;;;;;;;17.27;15.60;;;;;;;20.83;69.23;94405.00;4207715;28;20617;-57
2023/06/26 04:36:38;;;;;;;18.23;16.33;;;;;;;20.79;69.12;94404.66;4203719;28;20044;-55
2023/06/26 04:38:40;;;;;;;23.58;16.77;;;;;;;20.81;68.98;94407.09;4210570;28;20055;-59
2023/06/26 04:40:42;;;;;;;18.42;16.35;;;;;;;20.80;68.82;94406.28;4202375;28;20120;-56
2023/06/26 04:42:44;;;;;;;18.13;16.52;;;;;;;20.74;69.19;94411.72;4212025;28;20059;-56
2023/06/26 04:44:45;;;;;;;19.52;16.92;;;;;;;20.80;69.21;94408.94;4212210;28;20502;-58
2023/06/26 04:46:47;;;;;;;22.65;17.13;;;;;;;20.86;69.33;94408.03;4211592;28;20048;-60
2023/06/26 04:48:49;;;;;;;19.50;16.65;;;;;;;20.97;68.74;94417.06;4211904;28;20058;-60
2023/06/26 04:50:53;;;;;;;22.50;17.20;;;;;;;21.04;68.38;94416.97;4204638;28;20044;-56
2023/06/26 04:52:56;;;;;;;19.70;17.08;;;;;;;21.09;68.02;94409.06;4204005;28;20135;-57
2023/06/26 04:54:57;;;;;;;18.02;16.10;;;;;;;20.88;68.65;94409.63;4199957;28;20125;-58
2023/06/26 04:56:59;;;;;;;20.35;16.98;;;;;;;20.94;68.81;94411.38;4211308;28;20131;-59
2023/06/26 04:59:02;;;;;;;18.65;16.67;;;;;;;20.90;69.12;94415.53;4212158;28;20097;-56
2023/06/26 05:01:06;;;;;;;19.15;16.40;;;;;;;20.95;69.05;94413.00;4209841;28;20052;-58
2023/06/26 05:03:12;;;;;;;18.30;16.23;;;;;;;21.00;68.51;94413.94;4210097;28;20156;-56
2023/06/26 05:05:14;;;;;;;21.63;17.35;;;;;;;20.80;68.95;94411.59;4211319;28;20109;-57
2023/06/26 05:07:16;;;;;;;20.38;15.93;;;;;;;20.72;69.39;94417.25;4197645;28;20087;-57
2023/06/26 05:09:18;;;;;;;17.75;15.88;;;;;;;20.80;69.35;94416.94;4211040;28;20055;-54
2023/06/26 05:11:19;;;;;;;18.67;16.77;;;;;;;20.74;69.31;94423.16;4210632;28;20093;-57
2023/06/26 05:13:21;;;;;;;18.85;16.85;;;;;;;20.78;69.50;94416.34;4204800;28;20036;-58
2023/06/26 05:15:23;;;;;;;17.23;15.60;;;;;;;20.79;69.00;94419.81;4204300;28;20042;-58
2023/06/26 05:17:24;;;;;;;17.45;15.65;;;;;;;20.71;69.06;94418.28;4196161;28;20102;-59
2023/06/26 05:19:26;;;;;;;17.95;16.10;;;;;;;20.72;68.97;94424.44;4207788;28;20052;-57
2023/06/26 05:21:28;;;;;;;17.08;15.32;;;;;;;20.70;69.26;94427.31;4210546;28;20127;-60
2023/06/26 05:23:31;;;;;;;17.15;15.45;;;;;;;20.73;69.32;94426.03;4210945;28;20048;-59
2023/06/26 05:25:36;;;;;;;17.35;15.48;;;;;;;20.76;69.18;94425.59;4210892;28;20047;-59
2023/06/26 05:27:37;;;;;;;18.75;15.55;;;;;;;20.48;69.70;94431.50;4204260;28;20048;-58
2023/06/26 05:29:39;;;;;;;19.08;16.52;;;;;;;20.47;70.08;94430.69;4198682;28;20052;-58
2023/06/26 05:31:42;;;;;;;19.08;17.08;;;;;;;20.15;71.16;94435.44;4205875;28;20446;-59
2023/06/26 05:33:44;;;;;;;20.45;17.52;;;;;;;20.01;71.91;94432.16;4206469;28;20043;-58
2023/06/26 05:35:46;;;;;;;18.38;16.48;;;;;;;20.09;72.06;94442.47;4199563;28;20202;-58
2023/06/26 05:37:50;;;;;;;18.33;16.45;;;;;;;20.16;71.71;94443.19;4199812;28;20053;-59
2023/06/26 05:39:52;;;;;;;19.17;16.70;;;;;;;20.40;71.21;94444.09;4198220;28;20094;-58
2023/06/26 05:41:54;;;;;;;18.45;16.50;;;;;;;20.54;70.86;94433.25;4202344;28;20328;-58
2023/06/26 05:43:55;;;;;;;19.35;16.50;;;;;;;20.39;71.04;94441.66;4198739;28;20048;-57
2023/06/26 05:45:58;;;;;;;18.73;16.83;;;;;;;20.39;71.17;94444.31;4205776;28;20054;-57
2023/06/26 05:47:59;;;;;;;19.50;16.58;;;;;;;20.56;70.81;94442.63;4195865;28;20044;-56
2023/06/26 05:50:02;;;;;;;22.00;16.67;;;;;;;20.71;70.22;94439.56;4194090;28;20617;-58
2023/06/26 05:52:04;;;;;;;18.58;16.60;;;;;;;20.88;69.40;94436.25;4207450;28;20056;-55
2023/06/26 05:54:06;;;;;;;19.05;17.05;;;;;;;20.95;69.04;94440.44;4199446;28;20048;-58
2023/06/26 05:56:08;;;;;;;20.75;16.25;;;;;;;21.11;68.68;94444.28;4200556;28;20057;-59
2023/06/26 05:58:11;;;;;;;16.50;14.88;;;;;;;21.29;67.70;94440.69;4210779;28;20044;-60
2023/06/26 06:00:13;;;;;;;17.17;15.57;;;;;;;21.38;67.66;94438.47;4200042;28;20127;-59
2023/06/26 06:02:15;;;;;;;22.90;15.63;;;;;;;21.45;67.05;94439.22;4200053;28;20068;-59
2023/06/26 06:04:17;;;;;;;19.23;16.10;;;;;;;21.52;67.02;94441.75;4211118;28;20052;-59
2023/06/26 06:06:18;;;;;;;16.83;15.20;;;;;;;21.54;66.79;94439.69;4203077;28;20078;-58
2023/06/26 06:08:20;;;;;;;19.33;15.20;;;;;;;21.24;67.35;94440.56;4207081;28;20041;-58
2023/06/26 06:10:22;;;;;;;17.75;15.73;;;;;;;21.16;68.14;94444.38;4199757;28;20106;-60
2023/06/26 06:12:24;;;;;;;18.95;15.98;;;;;;;21.22;68.12;94437.34;4198257;28;20055;-54
2023/06/26 06:14:25;;;;;;;17.23;15.30;;;;;;;21.40;67.45;94441.72;4208893;28;20058;-57
2023/06/26 06:16:29;;;;;;;16.65;15.00;;;;;;;21.52;66.78;94444.44;4194330;28;20131;-58
2023/06/26 06:18:30;;;;;;;17.30;14.88;;;;;;;21.50;66.91;94443.84;4201293;28;20131;-60
2023/06/26 06:20:32;;;;;;;16.48;14.70;;;;;;;21.52;66.34;94439.91;4209844;28;20134;-57
2023/06/26 06:22:34;;;;;;;21.38;15.07;;;;;;;21.71;65.72;94437.91;4208629;28;20090;-58
2023/06/26 06:24:35;;;;;;;17.17;14.18;;;;;;;21.50;66.02;94443.84;4210219;28;20086;-58
2023/06/26 06:26:37;;;;;;;16.98;13.98;;;;;;;20.84;68.28;94444.72;4209971;28;20077;-59
2023/06/26 06:28:39;;;;;;;15.50;13.45;;;;;;;20.97;68.02;94435.72;4211288;28;20680;-56
2023/06/26 06:30:41;;;;;;;16.75;14.70;;;;;;;21.00;67.48;94426.44;4198722;28;20487;-59
2023/06/26 06:32:50;;;;;;;17.08;14.32;;;;;;;21.19;67.35;94432.47;4209665;28;20086;-57
2023/06/26 06:34:51;;;;;;;14.75;13.05;;;;;;;21.35;66.67;94433.63;4210208;28;20052;-60
2023/06/26 06:36:53;;;;;;;16.27;12.90;;;;;;;21.54;65.35;94434.34;4203319;28;20245;-59
2023/06/26 06:38:55;;;;;;;18.90;13.68;;;;;;;21.83;65.32;94440.53;4209654;28;20060;-58
2023/06/26 06:40:56;;;;;;;22.48;14.95;;;;;;;21.53;66.51;94430.88;4200637;28;20049;-57
2023/06/26 06:42:58;;;;;;;18.15;13.68;;;;;;;21.66;66.24;94424.47;4205359;28;20625;-58
2023/06/26 06:45:01;;;;;;;17.35;13.23;;;;;;;21.88;66.13;94424.66;4209611;28;20080;-56
2023/06/26 06:47:02;;;;;;;13.75;12.45;;;;;;;22.18;65.14;94423.66;4210530;28;20056;-59
2023/06/26 06:49:05;;;;;;;15.27;12.15;;;;;;;22.22;64.29;94424.75;4209342;28;20059;-60
2023/06/26 06:51:07;;;;;;;13.55;12.15;;;;;;;22.32;63.89;94426.88;4205192;28;20501;-55
2023/06/26 06:53:10;;;;;;;;;;;;;;;22.34;63.15;94435.44;4212416;28;20151;-53
2023/06/26 06:55:12;;;;;;;15.98;11.40;;;;;;;21.68;64.19;94433.03;4207018;28;19924;-58
2023/06/26 06:57:14;;;;;;;11.85;10.65;;;;;;;21.32;65.18;94428.78;4205482;28;20040;-57
2023/06/26 06:59:15;;;;;;;12.85;11.48;;;;;;;21.58;65.22;94433.66;4205302;28;20106;-58
2023/06/26 07:01:17;;;;;;;12.60;10.32;;;;;;;21.70;64.07;94427.47;4207200;28;20047;-60
2023/06/26 07:03:21;;;;;;;17.67;11.23;;;;;;;21.42;64.96;94429.00;4207010;28;20098;-59
2023/06/26 07:05:23;;;;;;;12.15;9.45;;;;;;;21.77;63.40;94430.81;4208381;28;20048;-56
2023/06/26 07:07:29;;;;;;;11.30;9.85;;;;;;;22.04;63.23;94426.56;4207397;28;20053;-54
2023/06/26 07:09:30;;;;;;;10.05;9.05;;;;;;;22.26;61.25;94423.28;4206830;28;20097;-57
2023/06/26 07:11:32;;;;;;;10.93;9.63;;;;;;;22.42;61.70;94417.19;4211020;28;20052;-60
2023/06/26 07:13:37;;;;;;;15.48;10.57;;;;;;;22.27;62.50;94422.25;4210305;28;20044;-57
2023/06/26 07:15:38;;;;;;;14.82;10.57;;;;;;;21.93;63.67;94419.44;4212809;28;20036;-56
2023/06/26 07:17:40;;;;;;;13.40;9.77;;;;;;;21.94;63.67;94418.38;4200922;28;20568;-58
2023/06/26 07:19:42;;;;;;;12.18;9.93;;;;;;;21.86;62.77;94422.22;4200074;28;20472;-57
2023/06/26 07:21:46;;;;;;;10.45;9.32;;;;;;;21.87;62.89;94420.38;4203219;28;20050;-56
2023/06/26 07:23:47;;;;;;;;;;;;;;;22.14;63.08;94415.31;4212586;28;20048;-57
2023/06/26 07:25:49;;;;;;;15.10;8.85;;;;;;;22.01;62.12;94419.06;4201575;28;19924;-59
2023/06/26 07:27:50;;;;;;;12.38;9.95;;;;;;;21.93;62.58;94415.94;4199783;28;20452;-58
2023/06/26 07:29:52;;;;;;;13.43;9.63;;;;;;;22.17;62.09;94414.00;4198884;28;20147;-57
2023/06/26 07:31:54;;;;;;;12.95;10.63;;;;;;;22.44;62.46;94408.94;4206136;28;20048;-59
2023/06/26 07:33:56;;;;;;;12.35;9.88;;;;;;;22.66;61.32;94411.72;4200826;28;20162;-55
2023/06/26 07:35:57;;;;;;;11.18;8.65;;;;;;;22.89;59.99;94414.25;4198316;27;20528;-58
2023/06/26 07:37:59;;;;;;;8.85;7.95;;;;;;;23.13;59.28;94416.78;4199687;28;20088;-56
2023/06/26 07:40:01;;;;;;;8.43;7.60;;;;;;;23.23;57.03;94421.47;4199742;28;20436;-59
2023/06/26 07:42:03;;;;;;;18.73;8.80;;;;;;;22.97;56.87;94407.66;4208549;28;20296;-58
2023/06/26 07:44:04;;;;;;;10.18;8.77;;;;;;;23.21;58.34;94410.19;4202087;28;20044;-57
2023/06/26 07:46:06;;;;;;;12.43;8.88;;;;;;;23.58;58.30;94412.34;4212037;28;20122;-59
2023/06/26 07:48:09;;;;;;;12.63;8.00;;;;;;;23.12;57.16;94419.69;4212680;28;20056;-59
2023/06/26 07:50:11;;;;;;;7.43;6.45;;;;;;;22.97;57.01;94413.00;4210474;28;20049;-58
2023/06/26 07:52:14;;;;;;;8.73;7.50;;;;;;;23.23;57.56;94411.59;4210236;28;20076;-59
2023/06/26 07:54:16;;;;;;;12.70;7.65;;;;;;;23.33;57.75;94418.94;4203870;28;20514;-58
2023/06/26 07:56:18;;;;;;;9.88;8.02;;;;;;;23.39;57.64;94419.84;4212478;28;20107;-58
2023/06/26 07:58:20;;;;;;;10.82;8.20;;;;;;;23.22;57.98;94415.31;4202106;28;20601;-59
2023/06/26 08:00:21;;;;;;;8.40;7.47;;;;;;;23.06;57.13;94421.50;4200287;28;20056;-61
2023/06/26 08:02:23;;;;;;;6.70;6.00;;;;;;;23.36;56.36;94415.78;4201011;28;20063;-59
2023/06/26 08:04:32;;;;;;;7.20;6.32;;;;;;;23.65;55.06;94416.44;4212909;28;20640;-59
2023/06/26 08:06:34;;;;;;;11.65;6.50;;;;;;;23.96;54.91;94422.19;4201901;28;20050;-60
2023/06/26 08:08:36;;;;;;;9.57;6.85;;;;;;;23.99;53.91;94413.69;4207620;28;20044;-55
2023/06/26 08:10:37;;;;;;;10.75;6.97;;;;;;;23.68;54.28;94421.31;4203520;28;20052;-58
2023/06/26 08:12:40;;;;;;;8.27;7.25;;;;;;;23.61;55.59;94418.00;4211573;28;20048;-57
2023/06/26 08:14:42;;;;;;;9.68;7.32;;;;;;;23.47;55.37;94412.19;4204996;28;20086;-59
2023/06/26 08:16:44;;;;;;;8.18;7.05;;;;;;;23.30;56.29;94412.22;4212282;28;20044;-57
2023/06/26 08:18:45;;;;;;;8.18;7.13;;;;;;;23.15;56.31;94408.53;4204223;28;20055;-55
2023/06/26 08:20:47;;;;;;;11.43;7.47;;;;;;;22.88;57.67;94409.13;4205352;28;20494;-58
2023/06/26 08:22:51;;;;;;;10.00;7.55;;;;;;;23.02;57.81;94415.00;4210057;28;20048;-57
2023/06/26 08:24:52;;;;;;;8.20;7.00;;;;;;;23.00;57.91;94417.91;4208152;28;20452;-54
2023/06/26 08:26:54;;;;;;;13.18;7.78;;;;;;;22.83;58.07;94420.56;4198590;28;20050;-59
2023/06/26 08:28:56;;;;;;;11.63;8.25;;;;;;;22.59;58.09;94421.75;4209053;28;20055;-58
2023/06/26 08:30:57;;;;;;;10.13;7.40;;;;;;;22.44;58.75;94424.97;4208569;28;20044;-57
2023/06/26 08:32:59;;;;;;;8.25;7.20;;;;;;;22.53;58.92;94414.69;4198932;28;20064;-60
2023/06/26 08:35:01;;;;;;;8.82;7.00;;;;;;;22.73;58.08;94423.03;4202355;28;20071;-57
2023/06/26 08:37:03;;;;;;;9.60;5.97;;;;;;;22.45;57.81;94424.69;4208140;28;20136;-57
2023/06/26 08:39:06;;;;;;;7.30;6.60;;;;;;;22.78;56.64;94419.66;4200725;28;20083;-57
2023/06/26 08:41:08;;;;;;;11.18;6.13;;;;;;;23.24;56.01;94420.41;4205360;28;20047;-59
2023/06/26 08:43:10;;;;;;;8.70;6.22;;;;;;;23.44;54.64;94419.91;4210702;28;20595;-59
2023/06/26 08:45:12;;;;;;;7.45;6.22;;;;;;;23.82;54.14;94413.75;4207274;28;20045;-56
2023/06/26 08:47:14;;;;;;;7.57;5.40;;;;;;;23.26;53.72;94427.13;4203139;28;20036;-58
2023/06/26 08:49:22;;;;;;;8.45;6.63;;;;;;;23.13;54.67;94416.78;4210602;28;20048;-58
2023/06/26 08:51:28;;;;;;;8.00;5.85;;;;;;;23.57;54.07;94416.06;4204353;28;20070;-57
2023/06/26 08:53:40;;;;;;;9.98;5.63;;;;;;;23.77;54.44;94421.72;4199079;28;20073;-57
2023/06/26 08:55:42;;;;;;;11.57;6.47;;;;;;;23.56;53.62;94425.16;4210695;28;20052;-60
2023/06/26 08:57:43;;;;;;;6.93;5.95;;;;;;;23.70;54.59;94413.84;4210124;28;20109;-58
2023/06/26 08:59:48;;;;;;;12.43;5.95;;;;;;;24.03;53.28;94417.50;4209666;28;20080;-58
2023/06/26 09:01:50;;;;;;;10.20;5.30;;;;;;;23.90;53.03;94410.66;4199326;28;20060;-59
2023/06/26 09:03:51;;;;;;;9.25;6.28;;;;;;;23.56;54.18;94430.50;4198554;28;20050;-58
2023/06/26 09:05:53;;;;;;;10.13;6.95;;;;;;;23.31;54.92;94411.16;4210977;28;20082;-58
2023/06/26 09:07:55;;;;;;;7.07;6.15;;;;;;;23.63;55.13;94413.22;4199936;28;20048;-57
2023/06/26 09:09:59;;;;;;;7.75;6.10;;;;;;;23.68;53.85;94418.63;4201220;28;20083;-57
2023/06/26 09:12:02;;;;;;;8.00;5.47;;;;;;;23.39;54.18;94419.84;4206687;28;20410;-60
2023/06/26 09:14:07;;;;;;;8.05;5.65;;;;;;;22.87;55.36;94413.69;4208504;28;20052;-55
2023/06/26 09:16:09;;;;;;;10.25;5.82;;;;;;;22.67;55.41;94422.16;4207111;28;20113;-55
2023/06/26 09:18:11;;;;;;;9.63;6.35;;;;;;;22.90;55.68;94410.50;4211607;28;20040;-61
2023/06/26 09:20:14;;;;;;;8.88;6.20;;;;;;;23.22;53.72;94417.19;4211492;28;20563;-62
2023/06/26 09:22:17;;;;;;;9.37;5.67;;;;;;;23.39;54.03;94411.81;4210517;28;20055;-61
2023/06/26 09:24:18;;;;;;;13.27;6.50;;;;;;;23.85;53.49;94415.13;4194362;28;20235;-59
2023/06/26 09:26:22;;;;;;;9.25;5.75;;;;;;;24.22;52.85;94409.94;4199275;28;20047;-61
2023/06/26 09:28:24;;;;;;;10.98;6.63;;;;;;;24.41;52.74;94405.03;4205862;28;20090;-64